Time;durP1;ratioP1;P1;durP2;ratioP2;P2;SDS_P1;SDS_P2;PMS_P1;PMS_P2;Temp;Humidity;BMP_temperature;BMP_pressure;BME280_temperature;BME280_humidity;BME280_pressure;Samples;Min_cycle;Max_cycle;Signal;HPM_P1;HPM_P2
2022/02/26 00:02:18;;;;;;;0.00;0.00;;;;;;;;;;4991296;28;20028;-74
2022/02/26 00:04:44;;;;;;;0.47;0.47;;;;;;;;;;5001004;28;20045;-73
2022/02/26 00:07:11;;;;;;;0.10;0.10;;;;;;;;;;4978021;28;20408;-72
2022/02/26 00:09:37;;;;;;;0.40;0.40;;;;;;;;;;5005023;28;20033;-72
2022/02/26 00:12:03;;;;;;;0.25;0.25;;;;;;;;;;5006986;28;20069;-73
2022/02/26 00:14:30;;;;;;;0.38;0.38;;;;;;;;;;5004965;28;20029;-73
2022/02/26 00:16:56;;;;;;;6.57;2.45;;;;;;;;;;5006366;28;20044;-72
2022/02/26 00:19:22;;;;;;;14.10;0.57;;;;;;;;;;5006857;28;20697;-72
2022/02/26 00:21:48;;;;;;;0.00;0.00;;;;;;;;;;5006900;28;20041;-73
2022/02/26 00:24:14;;;;;;;0.57;0.57;;;;;;;;;;5004492;28;20038;-73
2022/02/26 00:26:40;;;;;;;0.25;0.25;;;;;;;;;;4997384;28;20097;-73
2022/02/26 00:29:06;;;;;;;0.88;0.52;;;;;;;;;;5002997;28;20036;-73
2022/02/26 00:31:32;;;;;;;0.20;0.20;;;;;;;;;;5004661;28;20030;-73
2022/02/26 00:33:58;;;;;;;4.70;0.80;;;;;;;;;;5005346;28;20548;-73
2022/02/26 00:36:24;;;;;;;1.05;1.05;;;;;;;;;;5007333;28;20088;-72
2022/02/26 00:38:50;;;;;;;0.00;0.00;;;;;;;;;;5005860;28;20113;-72
2022/02/26 00:41:16;;;;;;;3.40;1.65;;;;;;;;;;5004397;28;20182;-73
2022/02/26 00:43:42;;;;;;;0.40;0.40;;;;;;;;;;5007529;28;20122;-72
2022/02/26 00:46:08;;;;;;;0.25;0.25;;;;;;;;;;5004897;28;20600;-72
2022/02/26 00:51:19;;;;;;;2.70;0.75;;;;;;;;;;5004060;28;20033;-73
2022/02/26 00:53:45;;;;;;;0.65;0.57;;;;;;;;;;5008203;28;20022;-72
2022/02/26 00:56:11;;;;;;;0.30;0.30;;;;;;;;;;4997915;28;20061;-73
2022/02/26 00:58:37;;;;;;;0.10;0.10;;;;;;;;;;5002094;28;20481;-73
2022/02/26 01:01:03;;;;;;;1.98;1.58;;;;;;;;;;4996891;28;20049;-73
2022/02/26 01:03:29;;;;;;;8.15;0.68;;;;;;;;;;5006932;28;20040;-73
2022/02/26 01:05:55;;;;;;;4.80;1.88;;;;;;;;;;5007156;28;20038;-73
2022/02/26 01:08:21;;;;;;;0.70;0.70;;;;;;;;;;4990096;28;20420;-73
2022/02/26 01:10:47;;;;;;;0.15;0.15;;;;;;;;;;5001298;28;20022;-73
2022/02/26 01:13:13;;;;;;;0.10;0.10;;;;;;;;;;5006023;28;20361;-72
2022/02/26 01:15:38;;;;;;;0.10;0.10;;;;;;;;;;5005877;28;20057;-73
2022/02/26 01:18:04;;;;;;;0.28;0.28;;;;;;;;;;4996226;28;20030;-73
2022/02/26 01:20:30;;;;;;;0.20;0.20;;;;;;;;;;4999612;28;20029;-72
2022/02/26 01:22:56;;;;;;;2.10;1.65;;;;;;;;;;5007290;28;20028;-73
2022/02/26 01:25:22;;;;;;;2.97;0.85;;;;;;;;;;4997581;28;20109;-73
2022/02/26 01:27:48;;;;;;;0.20;0.20;;;;;;;;;;5002742;28;20120;-73
2022/02/26 01:30:14;;;;;;;0.10;0.10;;;;;;;;;;5006010;28;20030;-72
2022/02/26 01:32:41;;;;;;;0.10;0.10;;;;;;;;;;5002582;28;20783;-71
2022/02/26 01:35:07;;;;;;;0.00;0.00;;;;;;;;;;5001064;28;20022;-74
2022/02/26 01:37:33;;;;;;;0.20;0.20;;;;;;;;;;4987255;28;20600;-72
2022/02/26 01:39:58;;;;;;;0.63;0.63;;;;;;;;;;4996307;28;20034;-73
2022/02/26 01:42:24;;;;;;;0.65;0.55;;;;;;;;;;5005889;28;20088;-73
2022/02/26 01:44:51;;;;;;;0.60;0.60;;;;;;;;;;5005500;28;20559;-73
2022/02/26 01:47:17;;;;;;;5.57;1.17;;;;;;;;;;5004631;28;20038;-74
2022/02/26 01:49:43;;;;;;;2.67;1.60;;;;;;;;;;5003151;28;20022;-74
2022/02/26 01:52:10;;;;;;;1.35;1.20;;;;;;;;;;4999083;28;20105;-73
2022/02/26 01:54:36;;;;;;;0.38;0.38;;;;;;;;;;5009805;28;20017;-73
2022/02/26 01:57:02;;;;;;;0.40;0.40;;;;;;;;;;5005333;28;20077;-73
2022/02/26 01:59:28;;;;;;;0.10;0.10;;;;;;;;;;5000812;28;20439;-73
2022/02/26 02:01:54;;;;;;;0.65;0.65;;;;;;;;;;5002356;28;20031;-73
2022/02/26 02:04:20;;;;;;;47.65;2.83;;;;;;;;;;5009371;28;20107;-73
2022/02/26 02:06:46;;;;;;;0.65;0.57;;;;;;;;;;5006439;28;20072;-73
2022/02/26 02:09:12;;;;;;;0.38;0.38;;;;;;;;;;5009856;28;20038;-73
2022/02/26 02:11:39;;;;;;;0.90;0.85;;;;;;;;;;5009803;28;20030;-74
2022/02/26 02:14:05;;;;;;;0.00;0.00;;;;;;;;;;5007342;28;20037;-73
2022/02/26 02:16:31;;;;;;;0.65;0.35;;;;;;;;;;5009546;28;20026;-74
2022/02/26 02:18:57;;;;;;;0.20;0.20;;;;;;;;;;5008742;28;20033;-74
2022/02/26 02:21:23;;;;;;;0.08;0.08;;;;;;;;;;5005545;28;20057;-73
2022/02/26 02:23:49;;;;;;;0.00;0.00;;;;;;;;;;5008636;28;20113;-74
2022/02/26 02:26:17;;;;;;;1.08;0.50;;;;;;;;;;5003901;28;20037;-73
2022/02/26 02:28:43;;;;;;;3.60;0.80;;;;;;;;;;5009016;28;20057;-73
2022/02/26 02:31:09;;;;;;;0.15;0.15;;;;;;;;;;5009948;28;20030;-74
2022/02/26 02:33:38;;;;;;;0.30;0.30;;;;;;;;;;5006328;28;20478;-73
2022/02/26 02:36:04;;;;;;;0.10;0.10;;;;;;;;;;5008487;28;20018;-73
2022/02/26 02:38:30;;;;;;;0.10;0.10;;;;;;;;;;5009659;28;20068;-74
2022/02/26 02:40:57;;;;;;;5.88;0.80;;;;;;;;;;5008071;28;20484;-73
2022/02/26 02:43:23;;;;;;;1.10;1.05;;;;;;;;;;5008156;28;20053;-74
2022/02/26 02:45:56;;;;;;;0.10;0.10;;;;;;;;;;5007765;28;20041;-73
2022/02/26 02:48:22;;;;;;;0.52;0.52;;;;;;;;;;5003599;28;20045;-74
2022/02/26 02:50:48;;;;;;;0.75;0.50;;;;;;;;;;4993937;28;20543;-74
2022/02/26 02:53:16;;;;;;;1.80;1.02;;;;;;;;;;4993869;28;20034;-74
2022/02/26 02:55:50;;;;;;;0.10;0.10;;;;;;;;;;5006158;28;20052;-73
2022/02/26 02:58:19;;;;;;;0.00;0.00;;;;;;;;;;5006887;28;20040;-72
2022/02/26 03:00:45;;;;;;;1.08;1.08;;;;;;;;;;5006939;28;20108;-73
2022/02/26 03:03:11;;;;;;;0.17;0.17;;;;;;;;;;5002535;28;20037;-73
2022/02/26 03:05:37;;;;;;;0.20;0.20;;;;;;;;;;5003823;28;20485;-73
2022/02/26 03:08:03;;;;;;;3.65;0.85;;;;;;;;;;5006304;28;20058;-73
2022/02/26 03:10:29;;;;;;;0.10;0.10;;;;;;;;;;5008509;28;20447;-73
2022/02/26 03:12:55;;;;;;;0.52;0.52;;;;;;;;;;5008281;28;20048;-73
2022/02/26 03:15:23;;;;;;;3.20;1.65;;;;;;;;;;5006608;28;20037;-74
2022/02/26 03:17:49;;;;;;;0.85;0.85;;;;;;;;;;5003309;28;20493;-73
2022/02/26 03:20:15;;;;;;;0.10;0.10;;;;;;;;;;5001296;28;20447;-74
2022/02/26 03:22:41;;;;;;;9.57;2.15;;;;;;;;;;5006884;28;20033;-74
2022/02/26 03:25:07;;;;;;;0.05;0.05;;;;;;;;;;4999093;28;20026;-74
2022/02/26 03:27:33;;;;;;;0.82;0.82;;;;;;;;;;5007041;28;20037;-74
2022/02/26 03:30:00;;;;;;;0.20;0.20;;;;;;;;;;5006363;28;20429;-73
2022/02/26 03:32:26;;;;;;;0.30;0.30;;;;;;;;;;5007939;28;20026;-73
2022/02/26 03:34:55;;;;;;;0.17;0.17;;;;;;;;;;5007216;28;20088;-72
2022/02/26 03:37:21;;;;;;;1.20;1.13;;;;;;;;;;5005332;28;20129;-74
2022/02/26 03:39:47;;;;;;;0.57;0.57;;;;;;;;;;5004118;28;20117;-74
2022/02/26 03:42:13;;;;;;;1.10;1.00;;;;;;;;;;5008665;28;20105;-73
2022/02/26 03:44:40;;;;;;;1.08;1.08;;;;;;;;;;5009575;28;20457;-74
2022/02/26 03:47:06;;;;;;;2.20;0.63;;;;;;;;;;4999152;28;20026;-74
2022/02/26 03:49:32;;;;;;;2.47;1.92;;;;;;;;;;5003587;28;20481;-74
2022/02/26 03:51:58;;;;;;;0.63;0.63;;;;;;;;;;5006966;28;20075;-73
2022/02/26 03:54:24;;;;;;;0.98;0.47;;;;;;;;;;5003693;28;20037;-74
2022/02/26 03:56:50;;;;;;;0.10;0.10;;;;;;;;;;5006781;28;20049;-73
2022/02/26 03:59:16;;;;;;;0.85;0.70;;;;;;;;;;5006347;28;20087;-73
2022/02/26 04:01:42;;;;;;;2.63;2.10;;;;;;;;;;5005034;28;20038;-73
2022/02/26 04:04:08;;;;;;;0.10;0.10;;;;;;;;;;5007913;28;20033;-74
2022/02/26 04:06:34;;;;;;;0.10;0.10;;;;;;;;;;5007673;28;20038;-73
2022/02/26 04:09:01;;;;;;;0.60;0.60;;;;;;;;;;5006838;28;20096;-73
2022/02/26 04:11:27;;;;;;;0.95;0.90;;;;;;;;;;5007060;28;20030;-73
2022/02/26 04:13:53;;;;;;;0.40;0.40;;;;;;;;;;5006871;28;20101;-73
2022/02/26 04:16:19;;;;;;;0.10;0.10;;;;;;;;;;5003928;28;20148;-73
2022/02/26 04:18:45;;;;;;;0.10;0.10;;;;;;;;;;5008358;28;20022;-73
2022/02/26 04:21:11;;;;;;;0.10;0.10;;;;;;;;;;5004822;28;20030;-73
2022/02/26 04:23:37;;;;;;;0.25;0.20;;;;;;;;;;5005739;28;20083;-74
2022/02/26 04:26:03;;;;;;;0.10;0.10;;;;;;;;;;5006678;28;20026;-74
2022/02/26 04:28:29;;;;;;;0.55;0.55;;;;;;;;;;5007404;28;20607;-73
2022/02/26 04:30:55;;;;;;;0.10;0.10;;;;;;;;;;5006313;28;20369;-74
2022/02/26 04:33:21;;;;;;;2.75;1.38;;;;;;;;;;5006237;28;20024;-73
2022/02/26 04:35:47;;;;;;;0.55;0.43;;;;;;;;;;5002151;28;20022;-74
2022/02/26 04:38:12;;;;;;;1.45;0.40;;;;;;;;;;5006070;28;20145;-73
2022/02/26 04:40:38;;;;;;;0.00;0.00;;;;;;;;;;5004652;28;20125;-74
2022/02/26 04:43:04;;;;;;;0.30;0.30;;;;;;;;;;5002890;28;20037;-74
2022/02/26 04:45:30;;;;;;;0.10;0.10;;;;;;;;;;5006023;28;20093;-73
2022/02/26 04:47:56;;;;;;;0.10;0.10;;;;;;;;;;5007338;28;20040;-73
2022/02/26 04:50:22;;;;;;;0.10;0.10;;;;;;;;;;5006769;28;20018;-73
2022/02/26 04:52:48;;;;;;;0.85;0.85;;;;;;;;;;5008178;28;20420;-73
2022/02/26 04:55:14;;;;;;;0.00;0.00;;;;;;;;;;5008053;28;20255;-73
2022/02/26 04:57:40;;;;;;;1.75;1.65;;;;;;;;;;5008348;28;20074;-74
2022/02/26 05:00:08;;;;;;;0.20;0.20;;;;;;;;;;5000209;28;20026;-74
2022/02/26 05:02:33;;;;;;;0.00;0.00;;;;;;;;;;5008022;28;20224;-73
2022/02/26 05:04:59;;;;;;;9.75;1.58;;;;;;;;;;5001626;28;20030;-73
2022/02/26 05:07:25;;;;;;;0.95;0.95;;;;;;;;;;5005143;28;20034;-73
2022/02/26 05:09:52;;;;;;;0.32;0.32;;;;;;;;;;5007974;28;20381;-74
2022/02/26 05:12:18;;;;;;;0.65;0.65;;;;;;;;;;5004520;28;20037;-74
2022/02/26 05:14:44;;;;;;;0.63;0.63;;;;;;;;;;5005053;28;20236;-73
2022/02/26 05:17:10;;;;;;;16.17;1.33;;;;;;;;;;4998534;28;20050;-73
2022/02/26 05:19:36;;;;;;;4.18;2.53;;;;;;;;;;4999540;28;20034;-73
2022/02/26 05:22:02;;;;;;;0.30;0.30;;;;;;;;;;5003706;28;20033;-73
2022/02/26 05:24:27;;;;;;;0.60;0.60;;;;;;;;;;5008442;28;20023;-73
2022/02/26 05:26:53;;;;;;;2.75;1.17;;;;;;;;;;5010418;28;20037;-74
2022/02/26 05:29:22;;;;;;;17.77;0.98;;;;;;;;;;5007260;28;20485;-73
2022/02/26 05:31:48;;;;;;;2.20;0.95;;;;;;;;;;5004050;28;20389;-74
2022/02/26 05:34:14;;;;;;;0.10;0.10;;;;;;;;;;5006649;28;20085;-73
2022/02/26 05:36:40;;;;;;;0.38;0.38;;;;;;;;;;5005845;28;20045;-73
2022/02/26 05:39:06;;;;;;;0.32;0.32;;;;;;;;;;5000668;28;20117;-73
2022/02/26 05:41:32;;;;;;;0.20;0.20;;;;;;;;;;5002794;28;20095;-74
2022/02/26 05:43:58;;;;;;;0.10;0.10;;;;;;;;;;5010829;28;20053;-73
2022/02/26 05:46:23;;;;;;;0.52;0.40;;;;;;;;;;5008134;28;20041;-73
2022/02/26 05:48:49;;;;;;;0.73;0.73;;;;;;;;;;5009267;28;20041;-73
2022/02/26 05:51:15;;;;;;;0.17;0.17;;;;;;;;;;5009659;28;20026;-73
2022/02/26 05:53:42;;;;;;;0.10;0.10;;;;;;;;;;5007698;28;20042;-73
2022/02/26 05:56:08;;;;;;;0.05;0.05;;;;;;;;;;5010468;28;20045;-74
2022/02/26 05:58:34;;;;;;;1.27;1.17;;;;;;;;;;4999354;28;20046;-73
2022/02/26 06:01:00;;;;;;;0.08;0.08;;;;;;;;;;5003066;28;20162;-73
2022/02/26 06:03:25;;;;;;;0.80;0.57;;;;;;;;;;5007157;28;20559;-73
2022/02/26 06:05:51;;;;;;;1.20;1.05;;;;;;;;;;5001353;28;20034;-74
2022/02/26 06:08:18;;;;;;;5.57;1.05;;;;;;;;;;5007504;28;20029;-73
2022/02/26 06:10:43;;;;;;;0.65;0.47;;;;;;;;;;5009128;28;20113;-73
2022/02/26 06:13:09;;;;;;;0.55;0.55;;;;;;;;;;5006581;28;20455;-74
2022/02/26 06:15:35;;;;;;;0.30;0.30;;;;;;;;;;5007112;28;20037;-73
2022/02/26 06:18:01;;;;;;;2.90;2.10;;;;;;;;;;5009070;28;20574;-73
2022/02/26 06:20:27;;;;;;;0.10;0.10;;;;;;;;;;5007340;28;20370;-73
2022/02/26 06:22:53;;;;;;;1.10;1.10;;;;;;;;;;5009540;28;20061;-73
2022/02/26 06:25:19;;;;;;;0.28;0.28;;;;;;;;;;5004385;28;20084;-72
2022/02/26 06:27:45;;;;;;;0.15;0.15;;;;;;;;;;5010066;28;20068;-73
2022/02/26 06:30:12;;;;;;;0.10;0.10;;;;;;;;;;5007837;28;20080;-73
2022/02/26 06:32:39;;;;;;;0.28;0.22;;;;;;;;;;5002668;28;20121;-73
2022/02/26 06:35:06;;;;;;;0.95;0.63;;;;;;;;;;5005753;28;20057;-73
2022/02/26 06:37:32;;;;;;;0.50;0.50;;;;;;;;;;5002004;28;20033;-72
2022/02/26 06:39:58;;;;;;;0.32;0.20;;;;;;;;;;5007570;28;20120;-74
2022/02/26 06:42:24;;;;;;;0.08;0.08;;;;;;;;;;5007990;28;20037;-73
2022/02/26 06:44:50;;;;;;;0.10;0.10;;;;;;;;;;5008691;28;20033;-73
2022/02/26 06:47:16;;;;;;;0.10;0.10;;;;;;;;;;4999051;28;20030;-73
2022/02/26 06:49:42;;;;;;;0.10;0.10;;;;;;;;;;5012386;28;20056;-73
2022/02/26 06:52:08;;;;;;;5.35;0.28;;;;;;;;;;5010345;28;20022;-73
2022/02/26 06:54:34;;;;;;;0.20;0.20;;;;;;;;;;4999515;28;20033;-73
2022/02/26 06:57:00;;;;;;;0.10;0.10;;;;;;;;;;5007813;28;20148;-73
2022/02/26 06:59:29;;;;;;;0.30;0.30;;;;;;;;;;5009800;28;20103;-73
2022/02/26 07:01:55;;;;;;;0.20;0.20;;;;;;;;;;4999448;28;20030;-73
2022/02/26 07:04:21;;;;;;;0.13;0.13;;;;;;;;;;5004994;28;20516;-72
2022/02/26 07:06:47;;;;;;;2.72;1.05;;;;;;;;;;5008630;28;20033;-72
2022/02/26 07:09:14;;;;;;;0.20;0.20;;;;;;;;;;5009972;28;20125;-72
2022/02/26 07:11:41;;;;;;;2.83;1.73;;;;;;;;;;5009680;28;20026;-73
2022/02/26 07:14:07;;;;;;;0.10;0.10;;;;;;;;;;5009144;28;20031;-73
2022/02/26 07:16:33;;;;;;;1.55;1.02;;;;;;;;;;5006654;28;20076;-73
2022/02/26 07:19:00;;;;;;;13.38;2.22;;;;;;;;;;5002901;28;20374;-73
2022/02/26 07:21:26;;;;;;;0.10;0.10;;;;;;;;;;5006600;28;20045;-73
2022/02/26 07:23:53;;;;;;;0.73;0.17;;;;;;;;;;5008448;28;20057;-73
2022/02/26 07:26:19;;;;;;;15.50;1.95;;;;;;;;;;5006565;28;20026;-73
2022/02/26 07:28:45;;;;;;;2.67;2.22;;;;;;;;;;5007610;28;20061;-73
2022/02/26 07:31:11;;;;;;;0.35;0.20;;;;;;;;;;5006757;28;20064;-72
2022/02/26 07:33:37;;;;;;;0.20;0.20;;;;;;;;;;5008130;28;20460;-73
2022/02/26 07:36:03;;;;;;;0.32;0.32;;;;;;;;;;5002011;28;20034;-73
2022/02/26 07:38:32;;;;;;;1.10;1.10;;;;;;;;;;5006246;28;20312;-72
2022/02/26 07:40:58;;;;;;;1.70;1.60;;;;;;;;;;5003656;28;20129;-72
2022/02/26 07:43:23;;;;;;;8.10;3.70;;;;;;;;;;5000814;28;20112;-73
2022/02/26 07:45:49;;;;;;;4.18;1.20;;;;;;;;;;4990023;28;20037;-73
2022/02/26 07:48:15;;;;;;;4.20;1.95;;;;;;;;;;4996517;28;20054;-73
2022/02/26 07:50:45;;;;;;;0.63;0.63;;;;;;;;;;5003931;28;20018;-73
2022/02/26 07:53:11;;;;;;;11.30;1.63;;;;;;;;;;5006662;28;20447;-72
2022/02/26 07:55:37;;;;;;;0.70;0.70;;;;;;;;;;5005679;28;20045;-73
2022/02/26 07:58:04;;;;;;;0.10;0.10;;;;;;;;;;5002016;28;20038;-72
2022/02/26 08:00:30;;;;;;;1.05;1.00;;;;;;;;;;5005190;28;20096;-83
2022/02/26 08:02:56;;;;;;;0.68;0.68;;;;;;;;;;5008678;28;20546;-70
2022/02/26 08:05:22;;;;;;;0.65;0.63;;;;;;;;;;5003492;28;21368;-70
2022/02/26 08:07:48;;;;;;;0.52;0.52;;;;;;;;;;5003231;28;20030;-71
2022/02/26 08:10:14;;;;;;;6.93;1.40;;;;;;;;;;5007458;28;20018;-70
2022/02/26 08:12:42;;;;;;;2.55;0.98;;;;;;;;;;5004994;28;20442;-71
2022/02/26 08:15:08;;;;;;;1.33;0.50;;;;;;;;;;5007826;28;20025;-71
2022/02/26 08:17:34;;;;;;;0.32;0.32;;;;;;;;;;5006764;28;20044;-71
2022/02/26 08:20:00;;;;;;;0.77;0.77;;;;;;;;;;4999557;28;20026;-72
2022/02/26 08:22:26;;;;;;;1.65;1.55;;;;;;;;;;5001655;28;20037;-70
2022/02/26 08:24:52;;;;;;;0.40;0.40;;;;;;;;;;5002399;28;20079;-71
2022/02/26 08:27:18;;;;;;;0.32;0.32;;;;;;;;;;5001458;28;20123;-71
2022/02/26 08:29:44;;;;;;;0.82;0.73;;;;;;;;;;5005557;28;20551;-72
2022/02/26 08:32:09;;;;;;;0.10;0.10;;;;;;;;;;4996533;28;20037;-71
2022/02/26 08:34:35;;;;;;;0.10;0.10;;;;;;;;;;5005669;28;20069;-71
2022/02/26 08:37:01;;;;;;;0.10;0.10;;;;;;;;;;5007118;28;20096;-72
2022/02/26 08:39:30;;;;;;;0.13;0.13;;;;;;;;;;5003392;28;20042;-74
2022/02/26 08:41:56;;;;;;;2.15;1.30;;;;;;;;;;5005129;28;20030;-73
2022/02/26 08:44:21;;;;;;;3.83;1.80;;;;;;;;;;5007152;28;20021;-73
2022/02/26 08:46:48;;;;;;;0.20;0.20;;;;;;;;;;5007212;28;20444;-73
2022/02/26 08:52:09;;;;;;;0.00;0.00;;;;;;;;;;4963678;28;20144;-73
2022/02/26 08:54:35;;;;;;;0.22;0.22;;;;;;;;;;5006676;28;20104;-73
2022/02/26 08:57:01;;;;;;;0.35;0.28;;;;;;;;;;5003583;28;20054;-73
2022/02/26 08:59:27;;;;;;;0.40;0.40;;;;;;;;;;5009283;28;20030;-72
2022/02/26 09:01:53;;;;;;;0.10;0.10;;;;;;;;;;5010072;28;20034;-73
2022/02/26 09:04:20;;;;;;;0.10;0.10;;;;;;;;;;5010312;28;20460;-73
2022/02/26 09:06:46;;;;;;;0.47;0.40;;;;;;;;;;5011391;28;20026;-73
2022/02/26 09:09:12;;;;;;;26.88;0.90;;;;;;;;;;5010852;28;20056;-74
2022/02/26 09:11:41;;;;;;;1.25;1.20;;;;;;;;;;5006768;28;20031;-72
2022/02/26 09:14:07;;;;;;;0.47;0.47;;;;;;;;;;5003050;28;20030;-69
2022/02/26 09:16:32;;;;;;;0.10;0.10;;;;;;;;;;5011937;28;20591;-70
2022/02/26 09:18:58;;;;;;;0.47;0.47;;;;;;;;;;5010502;28;20022;-71
2022/02/26 09:21:25;;;;;;;0.65;0.65;;;;;;;;;;5004154;28;20442;-70
2022/02/26 09:23:51;;;;;;;0.90;0.30;;;;;;;;;;5009767;28;20037;-75
2022/02/26 09:26:17;;;;;;;0.65;0.65;;;;;;;;;;5006076;28;20084;-72
2022/02/26 09:28:43;;;;;;;0.30;0.30;;;;;;;;;;5007303;28;20038;-72
2022/02/26 09:31:11;;;;;;;0.00;0.00;;;;;;;;;;5005020;28;20033;-72
2022/02/26 09:33:37;;;;;;;0.00;0.00;;;;;;;;;;5008627;28;20101;-72
2022/02/26 09:36:04;;;;;;;0.32;0.32;;;;;;;;;;5009655;28;20029;-72
2022/02/26 09:38:30;;;;;;;0.32;0.30;;;;;;;;;;5006932;28;20596;-72
2022/02/26 09:40:57;;;;;;;0.57;0.57;;;;;;;;;;5009804;28;20091;-71
2022/02/26 09:43:23;;;;;;;0.00;0.00;;;;;;;;;;5004111;28;20085;-71
2022/02/26 09:45:50;;;;;;;2.08;1.05;;;;;;;;;;5009244;28;20069;-71
2022/02/26 09:48:16;;;;;;;0.10;0.10;;;;;;;;;;5010112;28;20040;-71
2022/02/26 09:50:42;;;;;;;0.22;0.22;;;;;;;;;;5010155;28;20034;-72
2022/02/26 09:53:11;;;;;;;0.32;0.32;;;;;;;;;;5011231;28;20053;-71
2022/02/26 09:55:37;;;;;;;0.10;0.10;;;;;;;;;;5008839;28;20073;-72
2022/02/26 09:58:03;;;;;;;0.00;0.00;;;;;;;;;;5006749;28;20022;-69
2022/02/26 10:00:29;;;;;;;0.00;0.00;;;;;;;;;;5006872;28;20080;-70
2022/02/26 10:02:55;;;;;;;0.10;0.10;;;;;;;;;;5005338;28;20032;-70
2022/02/26 10:05:21;;;;;;;0.35;0.35;;;;;;;;;;5010612;28;20034;-71
2022/02/26 10:07:49;;;;;;;0.68;0.47;;;;;;;;;;5008864;28;20038;-74
2022/02/26 10:10:19;;;;;;;0.00;0.00;;;;;;;;;;5007767;28;20018;-74
2022/02/26 10:12:50;;;;;;;0.00;0.00;;;;;;;;;;4996719;28;20026;-74
2022/02/26 10:15:25;;;;;;;0.15;0.15;;;;;;;;;;5001977;28;20037;-73
2022/02/26 10:17:58;;;;;;;0.82;0.82;;;;;;;;;;4981114;28;20562;-72
2022/02/26 10:20:24;;;;;;;1.15;1.05;;;;;;;;;;5008941;28;20044;-73
2022/02/26 10:22:51;;;;;;;0.00;0.00;;;;;;;;;;5010252;28;20018;-72
2022/02/26 10:25:22;;;;;;;0.00;0.00;;;;;;;;;;5006985;28;20037;-72
2022/02/26 10:27:52;;;;;;;0.00;0.00;;;;;;;;;;4996818;28;20028;-71
2022/02/26 10:30:22;;;;;;;0.10;0.10;;;;;;;;;;5009904;28;20029;-71
2022/02/26 10:33:09;;;;;;;0.00;0.00;;;;;;;;;;5003215;28;20054;-75
2022/02/26 10:35:42;;;;;;;0.00;0.00;;;;;;;;;;5000587;28;20038;-71
2022/02/26 10:38:20;;;;;;;0.05;0.05;;;;;;;;;;5003634;28;20113;-72
2022/02/26 10:40:46;;;;;;;3.15;1.27;;;;;;;;;;5006247;28;20223;-71
2022/02/26 10:43:12;;;;;;;0.20;0.20;;;;;;;;;;4998830;28;20610;-71
2022/02/26 10:45:38;;;;;;;0.10;0.10;;;;;;;;;;5007299;28;20030;-72
2022/02/26 10:48:04;;;;;;;0.38;0.30;;;;;;;;;;5010571;28;20041;-71
2022/02/26 10:50:34;;;;;;;0.00;0.00;;;;;;;;;;5003932;28;20032;-72
2022/02/26 10:53:04;;;;;;;0.28;0.28;;;;;;;;;;4994478;28;20042;-72
2022/02/26 10:55:50;;;;;;;0.15;0.15;;;;;;;;;;4997990;28;20666;-73
2022/02/26 10:58:29;;;;;;;0.08;0.08;;;;;;;;;;4997846;28;20493;-72
2022/02/26 11:01:02;;;;;;;1.27;0.45;;;;;;;;;;5002665;28;20049;-71
2022/02/26 11:03:28;;;;;;;0.65;0.65;;;;;;;;;;5004690;28;20034;-72
2022/02/26 11:05:55;;;;;;;0.30;0.30;;;;;;;;;;5005788;28;20028;-71
2022/02/26 11:08:22;;;;;;;2.17;1.00;;;;;;;;;;4998485;28;20505;-73
2022/02/26 11:10:51;;;;;;;0.13;0.13;;;;;;;;;;4998477;28;20030;-72
2022/02/26 11:13:18;;;;;;;0.77;0.45;;;;;;;;;;5006577;28;20030;-72
2022/02/26 11:15:45;;;;;;;0.38;0.38;;;;;;;;;;4998214;28;20551;-70
2022/02/26 11:18:13;;;;;;;0.03;0.03;;;;;;;;;;5009069;28;20061;-70
2022/02/26 11:20:39;;;;;;;0.85;0.85;;;;;;;;;;5001950;28;20053;-71
2022/02/26 11:23:05;;;;;;;0.22;0.22;;;;;;;;;;5003409;28;20164;-74
2022/02/26 11:25:31;;;;;;;0.00;0.00;;;;;;;;;;5005811;28;20463;-74
2022/02/26 11:27:57;;;;;;;0.10;0.10;;;;;;;;;;5005914;28;20132;-74
2022/02/26 11:30:38;;;;;;;0.20;0.20;;;;;;;;;;5006793;28;20065;-74
2022/02/26 11:33:05;;;;;;;3.20;0.80;;;;;;;;;;5007522;28;20034;-74
2022/02/26 11:35:31;;;;;;;0.20;0.20;;;;;;;;;;4993374;28;20030;-73
2022/02/26 11:38:03;;;;;;;0.50;0.50;;;;;;;;;;4998491;28;20069;-72
2022/02/26 11:40:29;;;;;;;2.42;1.35;;;;;;;;;;4996184;28;20519;-73
2022/02/26 11:43:06;;;;;;;1.45;1.35;;;;;;;;;;5109583;27;20842;-73
2022/02/26 11:45:33;;;;;;;0.00;0.00;;;;;;;;;;5085433;28;20024;-73
2022/02/26 11:48:00;;;;;;;0.10;0.10;;;;;;;;;;5081070;28;20107;-74
2022/02/26 11:50:28;;;;;;;0.55;0.55;;;;;;;;;;5079757;28;20017;-73
2022/02/26 11:52:55;;;;;;;0.85;0.40;;;;;;;;;;5087880;28;20390;-75
2022/02/26 11:55:49;;;;;;;1.02;0.68;;;;;;;;;;5073256;28;20108;-75
2022/02/26 11:58:30;;;;;;;0.32;0.32;;;;;;;;;;5076539;28;20054;-73
2022/02/26 12:01:22;;;;;;;5.38;1.00;;;;;;;;;;5073253;28;20119;-74
2022/02/26 12:03:49;;;;;;;0.00;0.00;;;;;;;;;;5075183;28;20031;-75
2022/02/26 12:06:19;;;;;;;2.97;1.27;;;;;;;;;;5073637;28;20506;-75
2022/02/26 12:08:48;;;;;;;1.45;0.63;;;;;;;;;;5079219;28;20101;-75
2022/02/26 12:11:20;;;;;;;0.22;0.22;;;;;;;;;;5070863;28;20028;-74
2022/02/26 12:13:50;;;;;;;0.15;0.15;;;;;;;;;;5070847;28;20039;-75
2022/02/26 12:16:18;;;;;;;0.20;0.20;;;;;;;;;;5071037;28;20119;-75
2022/02/26 12:18:46;;;;;;;0.10;0.10;;;;;;;;;;5072799;28;20032;-75
2022/02/26 12:21:12;;;;;;;0.00;0.00;;;;;;;;;;5079594;28;20038;-72
2022/02/26 12:23:41;;;;;;;0.00;0.00;;;;;;;;;;5083663;28;20030;-75
2022/02/26 12:26:10;;;;;;;0.60;0.52;;;;;;;;;;5085115;28;20541;-75
2022/02/26 12:28:36;;;;;;;0.00;0.00;;;;;;;;;;5084257;28;20442;-74
2022/02/26 12:31:09;;;;;;;0.10;0.10;;;;;;;;;;5084477;28;20100;-74
2022/02/26 12:33:37;;;;;;;0.20;0.20;;;;;;;;;;5082226;28;20478;-75
2022/02/26 12:36:08;;;;;;;0.17;0.13;;;;;;;;;;5068916;28;20044;-75
2022/02/26 12:38:34;;;;;;;0.10;0.10;;;;;;;;;;5076222;28;20028;-75
2022/02/26 12:41:01;;;;;;;0.08;0.08;;;;;;;;;;5080738;28;20264;-75
2022/02/26 12:43:29;;;;;;;0.10;0.10;;;;;;;;;;5069992;28;20036;-74
2022/02/26 12:45:55;;;;;;;0.00;0.00;;;;;;;;;;5079846;28;20119;-72
2022/02/26 12:48:21;;;;;;;0.10;0.10;;;;;;;;;;5080165;28;20424;-72
2022/02/26 12:50:47;;;;;;;0.10;0.10;;;;;;;;;;5075904;28;20154;-71
2022/02/26 12:53:13;;;;;;;2.92;1.65;;;;;;;;;;5070067;28;20039;-75
2022/02/26 12:55:39;;;;;;;0.30;0.30;;;;;;;;;;5061338;28;20017;-75
2022/02/26 12:58:05;;;;;;;0.00;0.00;;;;;;;;;;5063243;28;20024;-74
2022/02/26 13:00:32;;;;;;;0.10;0.10;;;;;;;;;;5066188;28;20040;-74
2022/02/26 13:03:00;;;;;;;0.28;0.28;;;;;;;;;;5056995;28;20035;-74
2022/02/26 13:05:32;;;;;;;0.00;0.00;;;;;;;;;;5053411;28;20064;-75
2022/02/26 13:07:59;;;;;;;0.10;0.10;;;;;;;;;;5057164;28;20495;-72
2022/02/26 13:10:29;;;;;;;0.10;0.10;;;;;;;;;;5065706;28;20472;-74
2022/02/26 13:12:55;;;;;;;1.35;0.70;;;;;;;;;;5061003;28;20052;-73
2022/02/26 13:15:21;;;;;;;0.20;0.20;;;;;;;;;;5068216;28;20101;-74
2022/02/26 13:17:48;;;;;;;0.50;0.45;;;;;;;;;;5065452;28;20651;-74
2022/02/26 13:20:16;;;;;;;0.63;0.63;;;;;;;;;;5058696;28;20055;-73
2022/02/26 13:22:49;;;;;;;0.00;0.00;;;;;;;;;;5062731;28;20036;-77
2022/02/26 13:25:18;;;;;;;0.22;0.22;;;;;;;;;;5060599;28;20049;-74
2022/02/26 13:27:46;;;;;;;0.00;0.00;;;;;;;;;;5063615;28;20416;-74
2022/02/26 13:30:35;;;;;;;0.10;0.10;;;;;;;;;;5059089;28;20028;-72
2022/02/26 13:33:01;;;;;;;0.00;0.00;;;;;;;;;;5050338;28;20567;-71
2022/02/26 13:35:29;;;;;;;0.10;0.10;;;;;;;;;;5053988;28;20040;-78
2022/02/26 13:37:56;;;;;;;0.10;0.10;;;;;;;;;;5055711;28;20086;-72
2022/02/26 13:40:22;;;;;;;2.03;0.93;;;;;;;;;;5053787;28;20112;-71
2022/02/26 13:42:59;;;;;;;0.55;0.15;;;;;;;;;;5045693;28;20045;-71
2022/02/26 13:45:26;;;;;;;0.00;0.00;;;;;;;;;;5049979;28;20476;-71
2022/02/26 13:47:52;;;;;;;0.50;0.50;;;;;;;;;;5050739;28;20032;-72
2022/02/26 13:50:19;;;;;;;0.35;0.35;;;;;;;;;;5056999;28;20025;-72
2022/02/26 13:52:48;;;;;;;0.10;0.10;;;;;;;;;;5056573;28;20028;-71
2022/02/26 13:55:16;;;;;;;0.57;0.57;;;;;;;;;;5049247;28;20513;-72
2022/02/26 13:57:43;;;;;;;0.10;0.10;;;;;;;;;;5054256;28;20021;-71
2022/02/26 14:00:16;;;;;;;1.17;1.08;;;;;;;;;;5049917;28;20025;-71
2022/02/26 14:02:55;;;;;;;0.00;0.00;;;;;;;;;;5066357;28;20056;-71
2022/02/26 14:05:24;;;;;;;0.00;0.00;;;;;;;;;;5066158;28;20023;-71
2022/02/26 14:07:51;;;;;;;0.00;0.00;;;;;;;;;;5049347;28;20460;-71
2022/02/26 14:10:18;;;;;;;0.03;0.03;;;;;;;;;;5055497;28;20024;-71
2022/02/26 14:12:48;;;;;;;0.00;0.00;;;;;;;;;;5053644;28;20048;-71
2022/02/26 14:15:14;;;;;;;0.15;0.15;;;;;;;;;;5049116;28;20035;-71
2022/02/26 14:17:41;;;;;;;0.10;0.10;;;;;;;;;;5056254;28;20032;-71
2022/02/26 14:20:11;;;;;;;0.20;0.20;;;;;;;;;;5050143;28;20052;-71
2022/02/26 14:22:37;;;;;;;0.05;0.05;;;;;;;;;;5067876;28;20036;-71
2022/02/26 14:25:05;;;;;;;1.08;0.52;;;;;;;;;;5068827;28;20025;-72
2022/02/26 14:27:31;;;;;;;0.30;0.17;;;;;;;;;;5067133;28;20104;-72
2022/02/26 14:30:10;;;;;;;0.57;0.40;;;;;;;;;;5059680;28;20025;-74
2022/02/26 14:32:38;;;;;;;0.03;0.03;;;;;;;;;;5052774;28;20127;-75
2022/02/26 14:35:05;;;;;;;0.10;0.10;;;;;;;;;;5058031;28;20078;-75
2022/02/26 14:37:31;;;;;;;0.47;0.43;;;;;;;;;;5052759;28;20032;-74
2022/02/26 14:39:57;;;;;;;0.77;0.77;;;;;;;;;;5060506;28;20021;-71
2022/02/26 14:42:23;;;;;;;1.98;0.98;;;;;;;;;;5065313;28;20051;-70
2022/02/26 14:44:49;;;;;;;2.72;0.60;;;;;;;;;;5062556;28;20032;-71
2022/02/26 14:47:15;;;;;;;0.00;0.00;;;;;;;;;;5056078;28;20708;-74
2022/02/26 14:49:41;;;;;;;0.43;0.43;;;;;;;;;;5056203;28;20024;-72